createdAt,value
2018-11-14T00:02:20.052Z,10.73
2018-11-14T00:04:45.145Z,10.52
2018-11-14T00:07:10.259Z,10.31
2018-11-14T00:09:35.379Z,10.63
2018-11-14T00:12:00.476Z,10.29
2018-11-14T00:17:02.578Z,10.46
2018-11-14T00:19:27.761Z,10.30
2018-11-14T00:21:52.796Z,10.47
2018-11-14T00:24:17.907Z,10.41
2018-11-14T00:26:42.961Z,10.50
2018-11-14T00:29:07.997Z,10.36
2018-11-14T00:31:33.103Z,10.49
2018-11-14T00:33:58.201Z,10.39
2018-11-14T00:36:23.303Z,10.45
2018-11-14T00:38:48.400Z,10.45
2018-11-14T00:41:13.486Z,10.35
2018-11-14T00:43:38.563Z,10.46
2018-11-14T00:46:03.688Z,10.58
2018-11-14T00:48:28.754Z,10.22
2018-11-14T00:50:53.857Z,10.15
2018-11-14T00:53:18.987Z,10.00
2018-11-14T00:55:44.056Z,10.19
2018-11-14T00:58:09.144Z,10.13
2018-11-14T01:00:34.229Z,10.12
2018-11-14T01:02:59.282Z,9.96
2018-11-14T01:05:24.369Z,10.16
2018-11-14T01:07:49.503Z,10.12
2018-11-14T01:10:34.133Z,10.04
2018-11-14T01:12:59.252Z,10.23
2018-11-14T01:15:24.485Z,10.22
2018-11-14T01:17:49.581Z,10.22
2018-11-14T01:20:16.254Z,10.12
2018-11-14T01:22:42.105Z,10.27
2018-11-14T01:25:08.300Z,10.25
2018-11-14T01:27:33.385Z,10.31
2018-11-14T01:29:58.521Z,10.22
2018-11-14T01:32:23.619Z,10.09
2018-11-14T01:34:48.727Z,9.99
2018-11-14T01:37:13.784Z,9.95
2018-11-14T01:39:38.904Z,9.86
2018-11-14T01:42:03.971Z,9.91
2018-11-14T01:44:29.056Z,9.81
2018-11-14T01:46:54.144Z,9.81
2018-11-14T01:49:19.197Z,9.91
2018-11-14T01:51:44.319Z,9.83
2018-11-14T01:54:09.389Z,9.82
2018-11-14T01:56:53.445Z,9.83
2018-11-14T01:59:37.481Z,9.91
2018-11-14T02:02:02.594Z,9.84
2018-11-14T02:04:27.669Z,9.66
2018-11-14T02:07:11.729Z,9.76
2018-11-14T02:09:36.834Z,9.84
2018-11-14T02:12:01.979Z,9.72
2018-11-14T02:14:27.103Z,9.99
2018-11-14T02:16:52.192Z,9.90
2018-11-14T02:19:17.284Z,10.07
2018-11-14T02:21:42.395Z,10.21
2018-11-14T02:24:07.494Z,9.90
2018-11-14T02:26:32.625Z,9.88
2018-11-14T02:28:57.752Z,10.01
2018-11-14T02:31:22.875Z,10.20
2018-11-14T02:33:47.959Z,10.16
2018-11-14T02:36:13.036Z,10.32
2018-11-14T02:38:38.146Z,10.45
2018-11-14T02:41:03.234Z,9.92
2018-11-14T02:43:28.341Z,10.23
2018-11-14T02:45:53.409Z,10.39
2018-11-14T02:48:18.491Z,10.37
2018-11-14T02:50:43.572Z,10.44
2018-11-14T02:53:08.658Z,10.47
2018-11-14T02:55:33.723Z,10.42
2018-11-14T02:57:58.807Z,10.46
2018-11-14T03:00:23.916Z,10.31
2018-11-14T03:02:49.001Z,10.17
2018-11-14T03:05:14.120Z,10.11
2018-11-14T03:07:39.589Z,10.29
2018-11-14T03:10:04.695Z,10.09
2018-11-14T03:12:48.767Z,10.27
2018-11-14T03:15:16.160Z,9.91
2018-11-14T03:17:41.280Z,10.08
2018-11-14T03:20:08.631Z,9.93
2018-11-14T03:22:33.687Z,9.46
2018-11-14T03:27:35.596Z,9.68
2018-11-14T03:30:00.662Z,9.56
2018-11-14T03:32:25.737Z,9.59
2018-11-14T03:35:10.395Z,9.51
2018-11-14T03:37:35.450Z,9.51
2018-11-14T03:40:00.830Z,9.82
2018-11-14T03:42:25.906Z,9.87
2018-11-14T03:44:51.006Z,9.77
2018-11-14T03:47:16.111Z,9.75
2018-11-14T03:49:41.203Z,9.75
2018-11-14T03:52:06.852Z,9.17
2018-11-14T03:54:31.939Z,9.24
2018-11-14T03:56:57.004Z,8.66
2018-11-14T03:59:22.148Z,9.01
2018-11-14T04:01:47.255Z,9.08
2018-11-14T04:04:31.314Z,9.51
2018-11-14T04:06:56.405Z,9.38
2018-11-14T04:09:21.612Z,9.56
2018-11-14T04:11:46.598Z,9.62
2018-11-14T04:14:11.954Z,9.74
2018-11-14T04:16:55.976Z,9.75
2018-11-14T04:19:21.209Z,9.65
2018-11-14T04:21:46.291Z,9.68
2018-11-14T04:24:11.379Z,9.69
2018-11-14T04:26:55.422Z,9.71
2018-11-14T04:29:20.518Z,9.66
2018-11-14T04:31:45.621Z,9.52
2018-11-14T04:34:10.734Z,9.57
2018-11-14T04:36:35.814Z,9.63
2018-11-14T04:39:00.996Z,9.68
2018-11-14T04:41:26.081Z,8.91
2018-11-14T04:43:51.194Z,9.44
2018-11-14T04:46:35.229Z,9.06
2018-11-14T04:49:00.324Z,9.08
2018-11-14T04:51:25.381Z,9.22
2018-11-14T04:53:50.511Z,8.98
2018-11-14T04:56:15.586Z,8.88
2018-11-14T04:58:40.662Z,8.89
2018-11-14T05:01:05.837Z,8.97
2018-11-14T05:03:30.861Z,9.15
2018-11-14T05:05:55.925Z,8.90
2018-11-14T05:08:20.982Z,8.76
2018-11-14T05:10:46.074Z,9.15
2018-11-14T05:13:11.237Z,9.16
2018-11-14T05:15:36.264Z,9.21
2018-11-14T05:18:01.344Z,9.53
2018-11-14T05:20:45.403Z,9.63
2018-11-14T05:23:29.449Z,9.31
2018-11-14T05:25:54.553Z,9.47
2018-11-14T05:28:19.628Z,9.53
2018-11-14T05:30:44.716Z,9.56
2018-11-14T05:33:09.814Z,9.56
2018-11-14T05:35:53.855Z,9.51
2018-11-14T05:38:18.926Z,9.26
2018-11-14T05:40:44.037Z,8.96
2018-11-14T05:43:09.119Z,8.60
2018-11-14T05:45:45.714Z,9.02
2018-11-14T05:48:10.791Z,9.05
2018-11-14T05:50:35.961Z,9.09
2018-11-14T05:53:01.035Z,8.99
2018-11-14T05:55:26.112Z,8.86
2018-11-14T05:57:51.203Z,8.80
2018-11-14T06:00:36.141Z,8.46
2018-11-14T06:05:45.273Z,9.18
2018-11-14T06:08:29.324Z,9.08
2018-11-14T06:10:54.449Z,8.88
2018-11-14T06:13:19.540Z,8.77
2018-11-14T06:15:44.634Z,8.72
2018-11-14T06:18:09.759Z,8.99
2018-11-14T06:20:34.889Z,9.13
2018-11-14T06:22:59.976Z,9.59
2018-11-14T06:25:47.302Z,9.70
2018-11-14T06:28:12.484Z,9.75
2018-11-14T06:30:38.028Z,9.66
2018-11-14T06:35:39.994Z,9.64
2018-11-14T06:38:05.145Z,9.67
2018-11-14T06:40:30.290Z,9.67
2018-11-14T06:42:55.382Z,9.69
2018-11-14T06:45:21.770Z,9.79
2018-11-14T06:47:47.982Z,9.76
2018-11-14T06:50:13.625Z,9.93
2018-11-14T06:52:39.334Z,9.88
2018-11-14T06:55:04.426Z,9.90
2018-11-14T06:57:29.603Z,9.91
2018-11-14T06:59:54.651Z,9.85
2018-11-14T07:02:19.768Z,9.95
2018-11-14T07:04:44.868Z,9.96
2018-11-14T07:07:09.947Z,9.31
2018-11-14T07:09:35.029Z,9.79
2018-11-14T07:12:00.115Z,9.66
2018-11-14T07:14:25.217Z,9.85
2018-11-14T07:17:09.272Z,9.98
2018-11-14T07:19:34.393Z,10.04
2018-11-14T07:21:59.489Z,9.76
2018-11-14T07:24:24.611Z,9.86
2018-11-14T07:26:49.736Z,9.79
2018-11-14T07:29:14.803Z,9.70
2018-11-14T07:31:39.938Z,9.88
2018-11-14T07:36:41.872Z,9.90
2018-11-14T07:39:09.873Z,10.07
2018-11-14T07:41:53.654Z,9.97
2018-11-14T07:44:18.762Z,10.11
2018-11-14T07:46:44.121Z,9.78
2018-11-14T07:49:09.335Z,9.81
2018-11-14T07:51:34.326Z,10.20
2018-11-14T07:53:59.613Z,10.10
2018-11-14T07:56:24.697Z,9.90
2018-11-14T07:58:49.797Z,10.06
2018-11-14T08:01:15.017Z,10.18
2018-11-14T08:03:40.082Z,10.04
2018-11-14T08:06:05.189Z,9.88
2018-11-14T08:08:30.354Z,9.80
2018-11-14T08:10:55.441Z,9.98
2018-11-14T08:13:21.390Z,9.82
2018-11-14T08:15:46.510Z,9.72
2018-11-14T08:18:11.610Z,9.78
2018-11-14T08:20:36.709Z,10.28
2018-11-14T08:23:01.825Z,10.01
2018-11-14T08:25:26.970Z,9.88
2018-11-14T08:27:52.057Z,9.67
2018-11-14T08:30:17.214Z,9.85
2018-11-14T08:32:42.326Z,10.24
2018-11-14T08:35:09.339Z,10.08
2018-11-14T08:37:34.462Z,9.90
2018-11-14T08:39:59.554Z,10.44
2018-11-14T08:42:24.664Z,10.35
2018-11-14T08:44:49.775Z,10.34
2018-11-14T08:47:14.908Z,10.31
2018-11-14T08:49:40.020Z,10.70
2018-11-14T08:52:05.180Z,10.51
2018-11-14T08:54:30.289Z,10.35
2018-11-14T08:56:55.658Z,10.12
2018-11-14T08:59:20.815Z,10.18
2018-11-14T09:01:45.946Z,10.23
2018-11-14T09:04:11.176Z,10.42
2018-11-14T09:06:36.154Z,9.93
2018-11-14T09:14:14.270Z,10.30
2018-11-14T09:16:39.659Z,10.18
2018-11-14T09:19:04.804Z,10.28
2018-11-14T09:21:29.953Z,10.35
2018-11-14T09:23:55.175Z,10.36
2018-11-14T09:26:20.165Z,10.14
2018-11-14T09:28:45.310Z,10.81
2018-11-14T09:31:10.408Z,10.32
2018-11-14T09:33:35.505Z,10.54
2018-11-14T09:36:00.604Z,10.82
2018-11-14T09:38:25.703Z,10.96
2018-11-14T09:40:50.816Z,10.93
2018-11-14T09:43:15.905Z,11.05
2018-11-14T09:45:41.027Z,11.03
2018-11-14T09:48:06.172Z,11.15
2018-11-14T09:50:32.373Z,11.34
2018-11-14T09:53:07.010Z,11.39
2018-11-14T09:55:32.079Z,11.34
2018-11-14T09:57:57.178Z,11.67
2018-11-14T10:00:26.544Z,11.43
2018-11-14T10:02:53.195Z,12.02
2018-11-14T10:05:37.317Z,11.71
2018-11-14T10:08:02.452Z,11.48
2018-11-14T10:10:27.579Z,11.45
2018-11-14T10:12:52.750Z,11.29
2018-11-14T10:15:19.162Z,11.74
2018-11-14T10:17:44.967Z,11.86
2018-11-14T10:20:12.328Z,12.16
2018-11-14T10:22:37.471Z,11.72
2018-11-14T10:25:02.679Z,11.82
2018-11-14T10:27:27.797Z,12.23
2018-11-14T10:30:22.152Z,12.10
2018-11-14T10:32:47.840Z,12.66
2018-11-14T10:35:13.084Z,12.58
2018-11-14T10:37:38.702Z,12.89
2018-11-14T10:40:03.826Z,13.27
2018-11-14T10:42:28.903Z,13.55
2018-11-14T10:45:12.699Z,14.08
2018-11-14T10:47:37.782Z,14.02
2018-11-14T10:50:02.895Z,14.60
2018-11-14T10:52:27.998Z,14.36
2018-11-14T10:54:53.178Z,14.64
2018-11-14T10:57:18.240Z,15.38
2018-11-14T10:59:43.375Z,15.74
2018-11-14T11:02:27.173Z,16.22
2018-11-14T11:05:11.005Z,15.77
2018-11-14T11:07:54.826Z,16.68
2018-11-14T11:10:38.591Z,16.68
2018-11-14T11:13:33.753Z,17.92
2018-11-14T11:16:17.542Z,19.09
2018-11-14T11:18:42.652Z,18.13
2018-11-14T11:21:07.765Z,16.10
2018-11-14T11:23:32.950Z,15.98
2018-11-14T11:26:16.930Z,16.72
2018-11-14T11:29:00.977Z,16.56
2018-11-14T11:31:45.041Z,17.45
2018-11-14T11:34:10.736Z,17.78
2018-11-14T11:36:35.853Z,16.96
2018-11-14T11:39:01.041Z,16.12
2018-11-14T11:41:26.498Z,15.01
2018-11-14T11:43:51.632Z,15.72
2018-11-14T11:46:16.724Z,16.00
2018-11-14T11:48:41.837Z,16.40
2018-11-14T11:51:07.275Z,16.81
2018-11-14T11:53:32.236Z,17.38
2018-11-14T11:55:57.379Z,17.64
2018-11-14T11:58:22.466Z,17.26
2018-11-14T12:00:47.696Z,17.26
2018-11-14T12:03:12.717Z,17.55
2018-11-14T12:05:37.832Z,17.80
2018-11-14T12:08:02.980Z,17.37
2018-11-14T12:10:28.098Z,16.94
2018-11-14T12:12:53.176Z,16.39
2018-11-14T12:15:18.278Z,17.25
2018-11-14T12:17:43.942Z,16.77
2018-11-14T12:20:10.365Z,16.74
2018-11-14T12:22:35.436Z,17.13
2018-11-14T12:25:00.667Z,17.39
2018-11-14T12:27:25.782Z,17.74
2018-11-14T12:30:09.946Z,18.88
2018-11-14T12:32:34.910Z,20.24
2018-11-14T12:35:00.007Z,19.38
2018-11-14T12:42:45.954Z,21.52
2018-11-14T12:45:30.183Z,19.12
2018-11-14T12:47:55.312Z,20.16
2018-11-14T12:50:39.394Z,20.76
2018-11-14T12:53:04.488Z,20.93
2018-11-14T12:55:29.555Z,20.81
2018-11-14T12:57:54.633Z,20.22
2018-11-14T13:00:20.877Z,20.11
2018-11-14T13:02:45.995Z,22.40
2018-11-14T13:05:12.352Z,22.03
2018-11-14T13:07:37.417Z,23.61
2018-11-14T13:10:02.498Z,22.54
2018-11-14T13:12:47.547Z,23.78
2018-11-14T13:15:13.760Z,23.79
2018-11-14T13:17:38.911Z,20.62
2018-11-14T13:20:03.955Z,20.34
2018-11-14T13:22:29.031Z,19.80
2018-11-14T13:24:54.265Z,19.13
2018-11-14T13:27:19.350Z,18.31
2018-11-14T13:30:03.449Z,18.30
2018-11-14T13:32:28.533Z,18.62
2018-11-14T13:34:53.679Z,17.84
2018-11-14T13:37:37.802Z,17.36
2018-11-14T13:42:42.000Z,16.84
2018-11-14T13:45:08.553Z,16.69
2018-11-14T13:47:33.697Z,17.08
2018-11-14T13:49:58.906Z,17.29
2018-11-14T13:52:24.040Z,17.00
2018-11-14T13:54:49.248Z,16.81
2018-11-14T13:57:14.392Z,16.84
2018-11-14T13:59:39.549Z,16.94
2018-11-14T14:02:04.691Z,16.67
2018-11-14T14:04:48.766Z,16.62
2018-11-14T14:07:13.872Z,16.66
2018-11-14T14:09:38.940Z,16.73
2018-11-14T14:12:04.085Z,16.68
2018-11-14T14:14:29.242Z,16.55
2018-11-14T14:16:54.382Z,16.18
2018-11-14T14:19:19.410Z,16.31
2018-11-14T14:21:44.526Z,16.50
2018-11-14T14:24:09.687Z,16.29
2018-11-14T14:26:34.927Z,16.42
2018-11-14T14:29:00.467Z,16.12
2018-11-14T14:31:25.633Z,16.37
2018-11-14T14:33:50.764Z,16.40
2018-11-14T14:36:34.778Z,16.38
2018-11-14T14:38:59.872Z,16.36
2018-11-14T14:41:24.979Z,16.65
2018-11-14T14:44:09.063Z,16.48
2018-11-14T14:46:34.162Z,16.63
2018-11-14T14:48:59.387Z,16.85
2018-11-14T14:51:24.474Z,18.35
2018-11-14T14:53:49.605Z,18.02
2018-11-14T14:58:51.526Z,17.06
2018-11-14T15:01:16.676Z,16.79
2018-11-14T15:03:41.993Z,16.41
2018-11-14T15:06:07.079Z,16.52
2018-11-14T15:08:32.182Z,16.26
2018-11-14T15:10:57.353Z,16.18
2018-11-14T15:13:22.478Z,16.15
2018-11-14T15:15:47.872Z,16.24
2018-11-14T15:18:12.836Z,16.02
2018-11-14T15:20:37.932Z,16.04
2018-11-14T15:23:03.087Z,15.62
2018-11-14T15:25:28.185Z,15.46
2018-11-14T15:27:53.748Z,15.60
2018-11-14T15:30:30.233Z,15.69
2018-11-14T15:32:55.499Z,15.32
2018-11-14T15:35:20.691Z,15.55
2018-11-14T15:37:45.740Z,15.60
2018-11-14T15:40:13.159Z,15.55
2018-11-14T15:42:39.221Z,15.44
2018-11-14T15:45:04.302Z,15.34
2018-11-14T15:47:29.441Z,15.28
2018-11-14T15:49:54.630Z,15.33
2018-11-14T15:52:19.753Z,15.26
2018-11-14T15:55:03.872Z,15.22
2018-11-14T15:57:28.963Z,15.18
2018-11-14T15:59:54.081Z,15.04
2018-11-14T16:02:19.323Z,14.96
2018-11-14T16:07:40.692Z,14.96
2018-11-14T16:10:06.842Z,14.97
2018-11-14T16:12:32.018Z,14.88
2018-11-14T16:14:57.113Z,14.75
2018-11-14T16:17:22.277Z,14.76
2018-11-14T16:19:47.367Z,14.70
2018-11-14T16:22:12.465Z,14.61
2018-11-14T16:30:32.986Z,14.53
2018-11-14T16:32:59.402Z,14.50
2018-11-14T16:35:24.528Z,14.40
2018-11-14T16:37:49.661Z,14.50
2018-11-14T16:40:19.789Z,14.42
2018-11-14T16:42:44.928Z,14.41
2018-11-14T16:45:10.373Z,14.39
2018-11-14T16:47:54.456Z,14.37
2018-11-14T16:50:20.504Z,14.38
2018-11-14T16:52:45.820Z,14.17
2018-11-14T16:55:12.282Z,14.26
2018-11-14T16:57:38.323Z,14.34
2018-11-14T17:00:03.491Z,14.23
2018-11-14T17:02:28.983Z,14.20
2018-11-14T17:04:54.108Z,14.20
2018-11-14T17:07:19.275Z,14.28
2018-11-14T17:10:03.382Z,14.09
2018-11-14T17:12:28.493Z,14.13
2018-11-14T17:14:53.655Z,14.18
2018-11-14T17:17:18.768Z,13.98
2018-11-14T17:19:43.853Z,13.90
2018-11-14T17:22:08.964Z,13.97
2018-11-14T17:24:34.086Z,14.00
2018-11-14T17:26:59.092Z,14.02
2018-11-14T17:29:24.241Z,13.84
2018-11-14T17:31:49.531Z,14.02
2018-11-14T17:34:14.656Z,13.92
2018-11-14T17:36:39.793Z,13.79
2018-11-14T17:39:07.056Z,13.90
2018-11-14T17:41:32.232Z,13.98
2018-11-14T17:43:57.354Z,13.84
2018-11-14T17:46:22.478Z,13.82
2018-11-14T17:48:47.617Z,13.77
2018-11-14T17:51:12.713Z,13.79
2018-11-14T17:53:37.876Z,13.85
2018-11-14T17:56:03.007Z,13.81
2018-11-14T17:58:28.125Z,13.72
2018-11-14T18:00:53.273Z,13.67
2018-11-14T18:03:37.326Z,13.70
2018-11-14T18:06:02.484Z,13.69
2018-11-14T18:08:27.653Z,13.71
2018-11-14T18:10:52.786Z,13.77
2018-11-14T18:13:17.956Z,13.75
2018-11-14T18:15:43.143Z,13.66
2018-11-14T18:18:27.232Z,13.69
2018-11-14T18:20:52.336Z,13.71
2018-11-14T18:23:17.479Z,13.78
2018-11-14T18:25:42.611Z,13.62
2018-11-14T18:28:07.716Z,13.76
2018-11-14T18:30:32.967Z,13.66
2018-11-14T18:32:59.561Z,13.69
2018-11-14T18:35:25.265Z,13.66
2018-11-14T18:38:09.298Z,13.60
2018-11-14T18:40:35.444Z,13.69
2018-11-14T18:43:00.566Z,13.71
2018-11-14T18:45:27.685Z,13.61
2018-11-14T18:47:53.304Z,13.61
2018-11-14T18:50:19.105Z,13.57
2018-11-14T18:53:03.263Z,13.53
2018-11-14T18:55:29.699Z,13.53
2018-11-14T18:57:54.992Z,13.64
2018-11-14T19:02:57.823Z,13.57
2018-11-14T19:05:22.966Z,13.51
2018-11-14T19:07:48.045Z,13.48
2018-11-14T19:10:17.640Z,13.48
2018-11-14T19:12:43.366Z,13.46
2018-11-14T19:15:10.937Z,13.49
2018-11-14T19:17:36.089Z,13.55
2018-11-14T19:20:01.239Z,13.44
2018-11-14T19:22:26.344Z,13.44
2018-11-14T19:24:51.538Z,13.49
2018-11-14T19:27:16.654Z,13.44
2018-11-14T19:29:41.751Z,13.37
2018-11-14T19:32:07.295Z,13.32
2018-11-14T19:34:32.427Z,13.36
2018-11-14T19:36:57.573Z,13.39
2018-11-14T19:39:22.716Z,13.28
2018-11-14T19:41:47.837Z,13.44
2018-11-14T19:44:13.014Z,13.28
2018-11-14T19:46:38.157Z,13.26
2018-11-14T19:49:03.304Z,13.38
2018-11-14T19:51:28.417Z,13.24
2018-11-14T19:53:53.624Z,13.31
2018-11-14T19:56:18.800Z,13.35
2018-11-14T19:58:43.926Z,13.37
2018-11-14T20:01:09.049Z,13.23
2018-11-14T20:03:34.217Z,12.72
2018-11-14T20:05:59.385Z,12.95
2018-11-14T20:08:24.491Z,13.12
2018-11-14T20:11:08.644Z,13.19
2018-11-14T20:13:33.777Z,13.09
2018-11-14T20:15:58.916Z,13.30
2018-11-14T20:18:24.088Z,13.34
2018-11-14T20:20:49.256Z,13.37
2018-11-14T20:23:14.490Z,13.40
2018-11-14T20:25:58.694Z,13.25
2018-11-14T20:28:42.671Z,13.14
2018-11-14T20:31:26.803Z,13.33
2018-11-14T20:33:51.987Z,13.28
2018-11-14T20:36:17.174Z,12.92
2018-11-14T20:38:42.297Z,13.15
2018-11-14T20:41:07.456Z,13.23
2018-11-14T20:43:32.610Z,13.28
2018-11-14T20:45:57.777Z,13.06
2018-11-14T20:48:41.837Z,13.14
2018-11-14T20:51:06.986Z,13.11
2018-11-14T20:53:51.150Z,13.02
2018-11-14T20:56:16.345Z,13.00
2018-11-14T20:58:41.392Z,13.00
2018-11-14T21:01:06.988Z,13.16
2018-11-14T21:03:32.140Z,12.95
2018-11-14T21:05:57.307Z,13.07
2018-11-14T21:08:22.444Z,12.86
2018-11-14T21:11:06.556Z,12.76
2018-11-14T21:13:31.730Z,12.87
2018-11-14T21:15:56.850Z,12.92
2018-11-14T21:18:21.925Z,12.17
2018-11-14T21:20:58.528Z,10.83
2018-11-14T21:23:23.630Z,11.76
2018-11-14T21:26:07.714Z,12.05
2018-11-14T21:28:32.830Z,12.00
2018-11-14T21:30:57.949Z,12.50
2018-11-14T21:33:23.081Z,12.37
2018-11-14T21:35:48.183Z,12.37
2018-11-14T21:38:13.373Z,12.44
2018-11-14T21:40:38.432Z,12.50
2018-11-14T21:43:22.535Z,12.44
2018-11-14T21:45:47.635Z,12.23
2018-11-14T21:48:14.470Z,12.23
2018-11-14T21:50:39.617Z,12.36
2018-11-14T21:53:04.751Z,12.28
2018-11-14T21:55:48.779Z,12.39
2018-11-14T21:58:13.836Z,12.28
2018-11-14T22:00:40.100Z,12.42
2018-11-14T22:03:05.614Z,12.48
2018-11-14T22:05:30.720Z,12.45
2018-11-14T22:07:55.864Z,12.46
2018-11-14T22:12:57.940Z,12.50
2018-11-14T22:15:24.327Z,12.38
2018-11-14T22:17:49.502Z,12.42
2018-11-14T22:20:15.850Z,12.37
2018-11-14T22:22:41.800Z,12.43
2018-11-14T22:25:07.145Z,12.42
2018-11-14T22:27:32.294Z,12.48
2018-11-14T22:29:57.404Z,12.46
2018-11-14T22:32:22.527Z,12.41
2018-11-14T22:34:47.719Z,12.30
2018-11-14T22:37:12.721Z,12.29
2018-11-14T22:39:37.816Z,12.23
2018-11-14T22:42:23.005Z,12.30
2018-11-14T22:44:48.094Z,12.29
2018-11-14T22:47:13.199Z,12.21
2018-11-14T22:49:38.285Z,11.60
2018-11-14T22:52:03.360Z,11.87
2018-11-14T22:54:28.598Z,11.83
2018-11-14T22:56:53.694Z,11.87
2018-11-14T22:59:18.772Z,11.86
2018-11-14T23:01:43.878Z,11.80
2018-11-14T23:06:47.429Z,11.75
2018-11-14T23:09:13.716Z,11.87
2018-11-14T23:11:57.787Z,11.81
2018-11-14T23:14:22.872Z,11.68
2018-11-14T23:16:48.032Z,11.66
2018-11-14T23:19:13.126Z,11.60
2018-11-14T23:21:38.218Z,11.65
2018-11-14T23:24:03.302Z,11.64
2018-11-14T23:26:28.370Z,11.56
2018-11-14T23:28:53.488Z,11.63
2018-11-14T23:31:18.573Z,11.63
2018-11-14T23:33:43.656Z,11.49
2018-11-14T23:36:08.737Z,11.45
2018-11-14T23:38:33.810Z,11.46
2018-11-14T23:40:58.900Z,11.47
2018-11-14T23:43:23.988Z,11.41
2018-11-14T23:45:49.081Z,11.44
2018-11-14T23:48:33.139Z,11.34
2018-11-14T23:50:58.233Z,11.24
2018-11-14T23:53:23.333Z,11.41
2018-11-14T23:56:07.396Z,11.31
2018-11-14T23:58:51.430Z,11.15
